Time;durP1;ratioP1;P1;durP2;ratioP2;P2;SDS_P1;SDS_P2;PMS_P1;PMS_P2;Temp;Humidity;BMP_temperature;BMP_pressure;BME280_temperature;BME280_humidity;BME280_pressure;Samples;Min_cycle;Max_cycle;Signal;HPM_P1;HPM_P2
2022/05/21 15:58:10;;;;;;;1.35;1.02;;;23.60;63.80;;;;;;5069214;28;20405;-74
2022/05/21 16:00:40;;;;;;;0.10;0.10;;;23.20;63.80;;;;;;5069485;28;20036;-74
2022/05/21 16:03:06;;;;;;;0.60;0.30;;;23.10;64.50;;;;;;5074730;28;20329;-74
2022/05/21 16:05:31;;;;;;;0.10;0.10;;;23.20;63.30;;;;;;5082967;28;20067;-74
2022/05/21 16:07:57;;;;;;;0.32;0.32;;;23.20;63.30;;;;;;5067821;28;20441;-74
2022/05/21 16:10:23;;;;;;;0.30;0.30;;;23.50;63.30;;;;;;5080576;28;20104;-74
2022/05/21 16:12:49;;;;;;;0.40;0.40;;;23.60;61.90;;;;;;5089601;28;20021;-74
2022/05/21 16:15:24;;;;;;;0.00;0.00;;;23.50;60.80;;;;;;5089270;28;20017;-74
2022/05/21 16:17:50;;;;;;;0.70;0.45;;;23.40;61.70;;;;;;5088909;28;20529;-74
2022/05/21 16:20:17;;;;;;;0.00;0.00;;;23.40;61.30;;;;;;5088127;28;20052;-73
2022/05/21 16:22:43;;;;;;;1.85;0.73;;;23.30;61.70;;;;;;5059219;28;20021;-74
2022/05/21 16:25:10;;;;;;;0.00;0.00;;;23.40;60.40;;;;;;5053907;28;20438;-73
2022/05/21 16:27:36;;;;;;;0.90;0.30;;;23.20;62.40;;;;;;5068655;28;20527;-74
2022/05/21 16:30:02;;;;;;;0.10;0.10;;;23.20;61.80;;;;;;5069293;22;20065;-75
2022/05/21 16:32:29;;;;;;;0.00;0.00;;;23.10;61.50;;;;;;5047461;28;20056;-75
2022/05/21 16:34:57;;;;;;;2.28;0.50;;;23.40;61.90;;;;;;5047473;28;20070;-75
2022/05/21 16:37:23;;;;;;;0.65;0.43;;;23.20;59.90;;;;;;5048251;28;20044;-75
2022/05/21 16:39:49;;;;;;;0.63;0.63;;;23.10;60.60;;;;;;5047390;28;20026;-75
2022/05/21 16:42:18;;;;;;;0.65;0.10;;;23.20;60.40;;;;;;5048460;28;20056;-75
2022/05/21 16:44:45;;;;;;;0.30;0.30;;;23.30;59.40;;;;;;5047108;28;20025;-76
2022/05/21 16:47:11;;;;;;;0.10;0.10;;;23.20;59.50;;;;;;5047724;28;20029;-72
2022/05/21 16:49:37;;;;;;;0.73;0.73;;;23.20;60.10;;;;;;5047069;28;20056;-76
2022/05/21 16:52:05;;;;;;;0.10;0.10;;;23.10;59.00;;;;;;5048399;28;20029;-76
2022/05/21 16:54:32;;;;;;;0.10;0.10;;;23.10;59.00;;;;;;5047138;28;20029;-76
2022/05/21 16:56:57;;;;;;;0.00;0.00;;;23.20;59.40;;;;;;5046661;28;20025;-76
2022/05/21 16:59:24;;;;;;;0.00;0.00;;;23.10;59.60;;;;;;5048027;28;20044;-76
2022/05/21 17:01:50;;;;;;;0.05;0.05;;;23.20;59.90;;;;;;5029625;28;20183;-76
2022/05/21 17:04:18;;;;;;;0.25;0.25;;;23.20;59.80;;;;;;5048193;28;20484;-77
2022/05/21 17:06:44;;;;;;;0.00;0.00;;;23.00;59.70;;;;;;5046624;28;20235;-77
2022/05/21 17:09:11;;;;;;;31.55;22.15;;;23.00;60.80;;;;;;5035455;28;20032;-77
2022/05/21 17:11:41;;;;;;;0.03;0.03;;;23.10;60.50;;;;;;5033120;28;20021;-76
2022/05/21 17:14:07;;;;;;;0.10;0.10;;;23.10;60.40;;;;;;5033313;28;20022;-76
2022/05/21 17:16:33;;;;;;;0.10;0.10;;;23.00;59.70;;;;;;5033005;28;20543;-76
2022/05/21 17:18:59;;;;;;;0.00;0.00;;;22.80;60.50;;;;;;5033198;28;20056;-76
2022/05/21 17:21:25;;;;;;;0.05;0.05;;;22.90;61.70;;;;;;5033184;28;20025;-76
2022/05/21 17:23:54;;;;;;;0.10;0.10;;;22.90;60.20;;;;;;5033389;28;20029;-76
2022/05/21 17:26:20;;;;;;;0.05;0.05;;;23.00;60.20;;;;;;5034270;28;20489;-77
2022/05/21 17:31:30;;;;;;;0.25;0.25;;;22.70;59.40;;;;;;5034500;28;20136;-76
2022/05/21 17:33:56;;;;;;;0.10;0.10;;;22.60;58.60;;;;;;5034288;28;20095;-76
2022/05/21 17:36:22;;;;;;;0.10;0.10;;;22.50;58.20;;;;;;5016316;28;20493;-76
2022/05/21 17:38:52;;;;;;;0.00;0.00;;;22.40;58.80;;;;;;5034181;28;20025;-76
2022/05/21 17:41:21;;;;;;;0.10;0.10;;;22.50;59.00;;;;;;5034129;28;20393;-76
2022/05/21 17:43:47;;;;;;;0.13;0.13;;;22.60;58.70;;;;;;5032870;28;20062;-76
2022/05/21 17:46:16;;;;;;;0.08;0.08;;;22.50;57.90;;;;;;5033987;28;20100;-76
2022/05/21 17:48:42;;;;;;;0.20;0.20;;;22.50;58.10;;;;;;5033843;28;20069;-76
2022/05/21 17:51:09;;;;;;;0.10;0.10;;;22.50;57.70;;;;;;5032680;28;20025;-76
2022/05/21 17:53:36;;;;;;;0.10;0.10;;;22.60;58.10;;;;;;5033914;28;20025;-76
2022/05/21 17:56:04;;;;;;;0.00;0.00;;;22.50;57.90;;;;;;5032500;28;20220;-76
2022/05/21 17:58:31;;;;;;;0.05;0.05;;;22.50;57.90;;;;;;5016126;28;20029;-76
2022/05/21 18:00:57;;;;;;;0.15;0.15;;;22.50;57.40;;;;;;5032811;28;20021;-77
2022/05/21 18:03:25;;;;;;;0.10;0.10;;;22.50;58.10;;;;;;5032677;28;20033;-76
2022/05/21 18:05:53;;;;;;;0.47;0.47;;;22.40;57.70;;;;;;5033680;28;20396;-76
2022/05/21 18:08:20;;;;;;;0.00;0.00;;;22.40;58.10;;;;;;5032542;28;20022;-77
2022/05/21 18:10:49;;;;;;;0.10;0.10;;;22.50;58.80;;;;;;5033765;28;20435;-77
2022/05/21 18:13:20;;;;;;;0.00;0.00;;;22.50;58.60;;;;;;5032695;28;20033;-77
2022/05/21 18:21:18;;;;;;;0.10;0.10;;;21.90;60.50;;;;;;5031312;28;20031;-77
2022/05/21 18:23:45;;;;;;;0.00;0.00;;;21.90;60.90;;;;;;5032313;28;20026;-77
2022/05/21 18:26:15;;;;;;;0.10;0.10;;;21.90;60.90;;;;;;5033563;28;20084;-77
2022/05/21 18:28:42;;;;;;;0.08;0.08;;;21.80;61.00;;;;;;5033116;28;20396;-77
2022/05/21 18:31:08;;;;;;;0.00;0.00;;;21.90;61.50;;;;;;5033389;28;20033;-77
2022/05/21 18:33:34;;;;;;;0.00;0.00;;;21.90;62.20;;;;;;5033357;28;20030;-77
2022/05/21 18:36:01;;;;;;;0.10;0.10;;;21.90;61.80;;;;;;5033769;28;20033;-77
2022/05/21 18:38:27;;;;;;;0.10;0.10;;;21.80;62.40;;;;;;5031954;28;20021;-78
2022/05/21 18:40:53;;;;;;;0.10;0.10;;;21.80;63.60;;;;;;5033265;28;20028;-77
2022/05/21 18:43:19;;;;;;;0.00;0.00;;;21.70;63.00;;;;;;5033427;28;20021;-77
2022/05/21 18:45:48;;;;;;;0.10;0.10;;;21.60;63.50;;;;;;5031820;28;20060;-77
2022/05/21 18:48:15;;;;;;;0.10;0.10;;;21.50;63.80;;;;;;5032716;28;20112;-77
2022/05/21 18:50:42;;;;;;;0.00;0.00;;;21.40;63.90;;;;;;5015333;28;20021;-77
2022/05/21 18:53:07;;;;;;;0.10;0.10;;;21.40;64.60;;;;;;5033076;28;20028;-77
2022/05/21 18:55:35;;;;;;;0.10;0.10;;;21.40;65.30;;;;;;5031714;28;20389;-77
2022/05/21 18:58:03;;;;;;;0.10;0.10;;;21.30;64.90;;;;;;5031420;28;20025;-77
2022/05/21 19:00:32;;;;;;;0.10;0.10;;;21.30;65.70;;;;;;5015083;28;20109;-77
2022/05/21 19:02:58;;;;;;;0.10;0.10;;;21.20;65.90;;;;;;5032767;28;20444;-77
2022/05/21 19:05:25;;;;;;;0.10;0.10;;;21.30;65.60;;;;;;5031546;28;20507;-77
2022/05/21 19:07:53;;;;;;;0.10;0.10;;;21.20;66.40;;;;;;5031436;28;20068;-77
2022/05/21 19:10:20;;;;;;;0.40;0.40;;;21.10;66.50;;;;;;5031424;28;20026;-77
2022/05/21 19:12:46;;;;;;;0.10;0.10;;;21.00;67.60;;;;;;5032662;28;20029;-77
2022/05/21 19:15:12;;;;;;;0.00;0.00;;;21.10;68.00;;;;;;5032690;28;20083;-78
2022/05/21 19:17:38;;;;;;;0.10;0.10;;;21.20;68.30;;;;;;5031042;28;20428;-78
2022/05/21 19:20:04;;;;;;;0.10;0.10;;;21.30;67.60;;;;;;5032683;28;20022;-78
2022/05/21 19:22:30;;;;;;;0.38;0.38;;;21.20;67.10;;;;;;5032530;28;20030;-77
2022/05/21 19:24:56;;;;;;;0.03;0.03;;;21.30;67.10;;;;;;5032751;28;20104;-77
2022/05/21 19:27:21;;;;;;;0.10;0.10;;;21.20;67.30;;;;;;5031033;28;20477;-78
2022/05/21 19:29:47;;;;;;;0.00;0.00;;;21.00;67.90;;;;;;5032244;28;20052;-77
2022/05/21 19:32:14;;;;;;;0.10;0.10;;;20.80;69.60;;;;;;5030897;28;20030;-77
2022/05/21 19:34:40;;;;;;;0.10;0.10;;;20.20;74.60;;;;;;5014278;28;20032;-77
2022/05/21 19:37:06;;;;;;;0.10;0.10;;;19.70;78.40;;;;;;5032361;28;20036;-77
2022/05/21 19:42:18;;;;;;;0.00;0.00;;;19.40;80.40;;;;;;5030664;28;20022;-77
2022/05/21 19:44:45;;;;;;;0.05;0.05;;;19.30;80.70;;;;;;5014307;28;20061;-78
2022/05/21 19:47:15;;;;;;;0.10;0.10;;;19.40;79.90;;;;;;5030695;28;20025;-77
2022/05/21 19:49:41;;;;;;;0.10;0.10;;;19.50;80.00;;;;;;5032008;28;20032;-77
2022/05/21 19:52:08;;;;;;;0.00;0.00;;;19.40;80.40;;;;;;5030725;28;20119;-77
2022/05/21 19:54:34;;;;;;;0.00;0.00;;;19.20;80.20;;;;;;5032127;28;20112;-77
2022/05/21 19:56:59;;;;;;;0.10;0.10;;;19.30;80.70;;;;;;5014150;28;20128;-77
2022/05/21 19:59:27;;;;;;;0.10;0.10;;;19.30;80.80;;;;;;5030963;28;20026;-77
2022/05/21 20:01:53;;;;;;;0.10;0.10;;;19.40;81.40;;;;;;5032142;28;20473;-77
2022/05/21 20:04:20;;;;;;;0.10;0.10;;;19.50;81.60;;;;;;5032099;28;20018;-78
2022/05/21 20:06:46;;;;;;;0.10;0.10;;;19.40;80.80;;;;;;5031815;28;20374;-77
2022/05/21 20:09:12;;;;;;;0.10;0.10;;;19.40;80.90;;;;;;5030592;28;20060;-77
2022/05/21 20:11:38;;;;;;;0.10;0.10;;;19.40;81.40;;;;;;5031922;28;20025;-77
2022/05/21 20:14:04;;;;;;;0.10;0.10;;;19.30;80.00;;;;;;5031967;28;20022;-77
2022/05/21 20:16:36;;;;;;;0.10;0.10;;;19.30;81.10;;;;;;5030633;28;20025;-78
2022/05/21 20:19:03;;;;;;;0.10;0.10;;;19.50;80.90;;;;;;5030573;28;20113;-77
2022/05/21 20:21:29;;;;;;;0.08;0.08;;;19.50;81.10;;;;;;5030757;28;20537;-77
2022/05/21 20:23:55;;;;;;;0.10;0.10;;;19.60;80.00;;;;;;5031899;28;20421;-77
2022/05/21 20:26:21;;;;;;;0.10;0.10;;;19.70;78.60;;;;;;5013918;28;20108;-78
2022/05/21 20:28:47;;;;;;;0.08;0.08;;;19.70;77.90;;;;;;5030527;28;20034;-77
2022/05/21 20:31:14;;;;;;;0.10;0.10;;;19.80;75.10;;;;;;5031067;28;20377;-78
2022/05/21 20:33:40;;;;;;;0.10;0.10;;;19.90;74.60;;;;;;5031875;28;20398;-77
2022/05/21 20:36:08;;;;;;;0.50;0.50;;;19.80;73.10;;;;;;5030687;28;20078;-77
2022/05/21 20:38:34;;;;;;;0.50;0.50;;;19.80;73.10;;;;;;5031579;28;20021;-77
2022/05/21 20:41:01;;;;;;;0.20;0.20;;;19.60;72.40;;;;;;5030625;28;20032;-77
2022/05/21 20:43:28;;;;;;;0.10;0.10;;;19.50;72.30;;;;;;5033042;28;20022;-77
2022/05/21 20:45:55;;;;;;;0.10;0.10;;;19.30;73.40;;;;;;5035710;28;20326;-77
2022/05/21 20:51:05;;;;;;;0.10;0.10;;;18.90;75.10;;;;;;5034056;28;20057;-77
2022/05/21 20:53:31;;;;;;;0.10;0.10;;;18.70;75.70;;;;;;5035539;28;20558;-77
2022/05/21 20:55:57;;;;;;;0.28;0.28;;;18.90;75.60;;;;;;5035292;28;20045;-78
2022/05/21 20:58:23;;;;;;;0.10;0.10;;;19.10;75.10;;;;;;5035325;28;20048;-78
2022/05/21 21:00:52;;;;;;;0.10;0.10;;;19.40;74.10;;;;;;5034362;28;20022;-77
2022/05/21 21:03:18;;;;;;;0.10;0.10;;;19.50;74.10;;;;;;5035696;28;20022;-78
2022/05/21 21:05:44;;;;;;;0.20;0.20;;;19.70;73.50;;;;;;5035784;28;20056;-77
2022/05/21 21:08:10;;;;;;;0.10;0.10;;;19.70;74.20;;;;;;5033961;28;20030;-71
2022/05/21 21:10:36;;;;;;;0.10;0.10;;;19.30;75.60;;;;;;5035973;28;20029;-77
2022/05/21 21:13:01;;;;;;;0.20;0.20;;;19.10;76.90;;;;;;5035047;28;20108;-78
2022/05/21 21:15:28;;;;;;;0.10;0.10;;;18.80;77.70;;;;;;5033927;28;20030;-77
2022/05/21 21:17:54;;;;;;;0.10;0.10;;;18.70;77.40;;;;;;5033352;28;20482;-77
2022/05/21 21:20:20;;;;;;;0.10;0.10;;;18.60;76.50;;;;;;5034763;28;20026;-77
2022/05/21 21:22:46;;;;;;;0.20;0.20;;;18.50;77.10;;;;;;5033666;28;20036;-77
2022/05/21 21:25:14;;;;;;;0.10;0.10;;;18.30;77.70;;;;;;5034732;28;20193;-77
2022/05/21 21:27:40;;;;;;;0.10;0.10;;;18.30;77.70;;;;;;5034411;28;20040;-77
2022/05/21 21:30:08;;;;;;;0.10;0.10;;;18.30;77.80;;;;;;5034613;28;20041;-77
2022/05/21 21:32:34;;;;;;;0.10;0.10;;;18.20;77.80;;;;;;5033488;28;20056;-77
2022/05/21 21:35:00;;;;;;;0.10;0.10;;;18.10;78.30;;;;;;5033265;28;20036;-77
2022/05/21 21:37:26;;;;;;;0.10;0.10;;;18.30;78.10;;;;;;5032905;28;20071;-77
2022/05/21 21:39:52;;;;;;;0.10;0.10;;;18.40;77.50;;;;;;5034355;28;20022;-77
2022/05/21 21:42:18;;;;;;;0.20;0.20;;;18.50;77.00;;;;;;5034281;28;20014;-77
2022/05/21 21:44:43;;;;;;;0.10;0.10;;;18.30;77.70;;;;;;5034537;28;20022;-77
2022/05/21 21:47:11;;;;;;;0.10;0.10;;;18.20;78.20;;;;;;5033014;28;20040;-77
2022/05/21 21:49:38;;;;;;;0.10;0.10;;;18.20;78.40;;;;;;5034347;28;20036;-77
2022/05/21 21:52:05;;;;;;;0.10;0.10;;;18.30;78.30;;;;;;5032775;28;20029;-77
2022/05/21 21:54:30;;;;;;;0.10;0.10;;;18.40;78.20;;;;;;5032861;28;20049;-77
2022/05/21 21:56:56;;;;;;;0.10;0.10;;;18.50;77.80;;;;;;5016168;28;20512;-77
2022/05/21 22:02:06;;;;;;;0.10;0.10;;;18.20;79.00;;;;;;5034061;28;20021;-77
2022/05/21 22:04:33;;;;;;;0.20;0.20;;;18.10;80.40;;;;;;5033950;28;20439;-77
2022/05/21 22:07:00;;;;;;;0.10;0.10;;;17.90;81.80;;;;;;5032416;28;20122;-77
2022/05/21 22:09:27;;;;;;;0.30;0.30;;;17.60;83.10;;;;;;5034119;28;20034;-77
2022/05/21 22:11:54;;;;;;;0.10;0.10;;;17.30;84.40;;;;;;5032638;28;20029;-77
2022/05/21 22:14:21;;;;;;;0.10;0.10;;;17.10;85.50;;;;;;5033801;28;20025;-77
2022/05/21 22:16:47;;;;;;;0.15;0.15;;;17.10;86.20;;;;;;5015825;28;20515;-77
2022/05/21 22:19:14;;;;;;;0.10;0.10;;;17.10;85.80;;;;;;5032534;28;20026;-77
2022/05/21 22:21:42;;;;;;;0.10;0.10;;;17.30;84.50;;;;;;5033858;28;20067;-77
2022/05/21 22:24:08;;;;;;;0.10;0.10;;;17.50;83.50;;;;;;5033840;28;20025;-77
2022/05/21 22:26:35;;;;;;;0.10;0.10;;;17.80;83.40;;;;;;5033612;28;20394;-77
2022/05/21 22:31:36;;;;;;;0.10;0.10;;;17.90;81.90;;;;;;5051461;28;20381;-72
2022/05/21 22:34:02;;;;;;;0.20;0.20;;;18.00;81.30;;;;;;5053151;28;20017;-72
2022/05/21 22:36:30;;;;;;;0.10;0.10;;;18.00;81.00;;;;;;5052888;28;20098;-72
2022/05/21 22:38:56;;;;;;;0.10;0.10;;;18.20;80.20;;;;;;5035155;28;20387;-72
2022/05/21 22:41:22;;;;;;;0.10;0.10;;;18.20;80.10;;;;;;5052987;28;20104;-72
2022/05/21 22:43:48;;;;;;;0.10;0.10;;;18.30;79.80;;;;;;5052908;28;20025;-72
2022/05/21 22:46:14;;;;;;;0.15;0.15;;;18.30;79.70;;;;;;5034966;28;20029;-72
2022/05/21 22:48:39;;;;;;;0.10;0.10;;;18.00;79.70;;;;;;5052657;28;20056;-72
2022/05/21 22:51:15;;;;;;;0.10;0.10;;;17.90;82.60;;;;;;5052583;28;20439;-72
2022/05/21 22:53:41;;;;;;;0.10;0.10;;;17.80;83.50;;;;;;5052719;28;20046;-72
2022/05/21 22:56:08;;;;;;;0.10;0.10;;;17.50;84.40;;;;;;5052518;28;20419;-72
2022/05/21 22:58:34;;;;;;;0.10;0.10;;;17.00;87.00;;;;;;5052352;28;20541;-72
2022/05/21 23:00:59;;;;;;;0.10;0.10;;;16.90;88.40;;;;;;5052619;28;20048;-72
2022/05/21 23:03:26;;;;;;;0.30;0.30;;;16.90;88.10;;;;;;5052567;28;20040;-72
2022/05/21 23:05:52;;;;;;;0.10;0.10;;;16.90;88.20;;;;;;5052093;28;20044;-72
2022/05/21 23:08:18;;;;;;;0.40;0.40;;;16.90;88.10;;;;;;5052232;28;20163;-72
2022/05/21 23:10:44;;;;;;;0.10;0.10;;;16.80;87.00;;;;;;5052490;28;20115;-72
2022/05/21 23:13:10;;;;;;;0.10;0.10;;;16.80;87.90;;;;;;5052324;28;20031;-72
2022/05/21 23:18:23;;;;;;;0.35;0.35;;;16.80;88.40;;;;;;5034157;28;20033;-72
2022/05/21 23:20:52;;;;;;;0.20;0.20;;;16.70;89.20;;;;;;5034506;28;20127;-73
2022/05/21 23:23:23;;;;;;;0.13;0.13;;;16.70;88.80;;;;;;5052132;28;20024;-72
2022/05/21 23:25:51;;;;;;;0.20;0.20;;;16.80;88.40;;;;;;5052316;28;20017;-72
2022/05/21 23:28:18;;;;;;;0.10;0.10;;;16.60;88.60;;;;;;5051790;28;20075;-72
2022/05/21 23:30:44;;;;;;;0.10;0.10;;;16.40;90.00;;;;;;5034269;28;20132;-72
2022/05/21 23:33:10;;;;;;;0.10;0.10;;;16.50;90.20;;;;;;5052095;28;20037;-72
2022/05/21 23:35:37;;;;;;;0.20;0.20;;;16.60;90.30;;;;;;5052578;28;20464;-72
2022/05/21 23:38:03;;;;;;;0.10;0.10;;;16.60;90.10;;;;;;5051596;28;20028;-72
2022/05/21 23:40:29;;;;;;;0.10;0.10;;;16.50;90.30;;;;;;5051981;28;20017;-71
2022/05/21 23:42:55;;;;;;;0.10;0.10;;;16.60;89.40;;;;;;5051929;28;20100;-72
2022/05/21 23:45:21;;;;;;;0.20;0.20;;;16.60;90.10;;;;;;5051904;28;20048;-72
2022/05/21 23:47:47;;;;;;;0.10;0.10;;;16.70;90.10;;;;;;5033872;28;20083;-72
2022/05/21 23:50:13;;;;;;;0.13;0.13;;;16.60;90.40;;;;;;5034160;28;20025;-72
2022/05/21 23:52:39;;;;;;;0.20;0.20;;;16.60;90.20;;;;;;5051783;28;20033;-72
2022/05/21 23:55:06;;;;;;;0.10;0.10;;;16.30;90.30;;;;;;5033860;28;20035;-72
2022/05/21 23:57:32;;;;;;;0.20;0.20;;;16.10;90.60;;;;;;5033616;28;20420;-72
2022/05/21 23:59:58;;;;;;;3.33;0.63;;;16.00;91.00;;;;;;5051776;28;20027;-72
